Time;durP1;ratioP1;P1;durP2;ratioP2;P2;SDS_P1;SDS_P2;PMS_P1;PMS_P2;Temp;Humidity;BMP_temperature;BMP_pressure;BME280_temperature;BME280_humidity;BME280_pressure;Samples;Min_cycle;Max_cycle;Signal;HPM_P1;HPM_P2
2022/05/06 00:01:01;;;;;;;3.63;3.33;;;;;;;10.21;83.87;98007.72;6260945;28;20266;-66
2022/05/06 00:04:04;;;;;;;2.90;2.70;;;;;;;10.13;84.31;98007.41;6281748;28;20310;-67
2022/05/06 00:07:06;;;;;;;2.93;2.73;;;;;;;10.09;84.28;98004.16;6281411;28;20318;-66
2022/05/06 00:10:09;;;;;;;3.50;3.20;;;;;;;10.06;84.34;98000.91;6281880;28;20756;-66
2022/05/06 00:13:12;;;;;;;5.63;2.97;;;;;;;10.03;84.39;98009.88;6280951;28;20734;-66
2022/05/06 00:16:15;;;;;;;3.50;3.20;;;;;;;9.99;84.54;98005.78;6280455;28;20246;-67
2022/05/06 00:19:17;;;;;;;4.03;3.00;;;;;;;9.92;84.60;98007.19;6280981;28;20238;-66
2022/05/06 00:22:19;;;;;;;5.70;2.97;;;;;;;9.84;84.23;98010.38;6280053;28;20307;-66
2022/05/06 00:25:21;;;;;;;6.10;3.50;;;;;;;9.83;84.82;98005.22;6281369;28;20227;-66
2022/05/06 00:28:23;;;;;;;3.40;3.10;;;;;;;9.77;85.04;98006.50;6262984;28;20241;-66
2022/05/06 00:31:26;;;;;;;3.23;2.93;;;;;;;9.73;84.73;98004.19;6280476;28;20571;-66
2022/05/06 00:34:28;;;;;;;3.63;3.33;;;;;;;9.70;85.57;98004.41;6280029;28;20228;-66
2022/05/06 00:37:31;;;;;;;3.30;3.10;;;;;;;9.66;85.30;98001.16;6280441;28;20234;-66
2022/05/06 00:40:33;;;;;;;3.90;3.50;;;;;;;9.63;85.17;98001.38;6280832;28;20234;-66
2022/05/06 00:43:42;;;;;;;3.50;3.20;;;;;;;9.65;85.63;98004.75;6279274;28;20230;-66
2022/05/06 00:46:45;;;;;;;3.30;3.00;;;;;;;9.69;85.74;98005.34;6263109;28;20276;-67
2022/05/06 00:49:48;;;;;;;3.20;2.90;;;;;;;9.73;85.90;98012.09;6277891;28;20226;-66
2022/05/06 00:52:50;;;;;;;5.03;3.80;;;;;;;9.68;85.63;98007.19;6280832;28;20222;-66
2022/05/06 00:55:53;;;;;;;4.73;3.47;;;;;;;9.61;86.19;98008.53;6281862;28;20327;-66
2022/05/06 00:58:55;;;;;;;4.27;3.40;;;;;;;9.57;86.00;98012.34;6278954;28;20268;-67
2022/05/06 01:01:57;;;;;;;3.70;3.30;;;;;;;9.56;86.51;98008.88;6278188;28;20222;-66
2022/05/06 01:05:01;;;;;;;3.67;3.30;;;;;;;9.54;85.77;98007.31;6274353;28;20231;-66
2022/05/06 01:08:04;;;;;;;3.73;2.97;;;;;;;9.54;86.50;98010.78;6279818;28;20235;-66
2022/05/06 01:11:13;;;;;;;3.40;3.10;;;;;;;9.54;85.94;98018.69;6278492;28;20237;-66
2022/05/06 01:14:34;;;;;;;5.27;3.33;;;;;;;9.50;86.56;98011.09;6278672;28;20229;-67
2022/05/06 01:18:05;;;;;;;5.67;3.50;;;;;;;9.45;86.61;98007.94;6260706;28;20281;-67
2022/05/06 01:21:09;;;;;;;3.60;3.23;;;;;;;9.43;85.88;98015.97;6280170;28;20220;-67
2022/05/06 01:24:11;;;;;;;4.67;3.57;;;;;;;9.41;86.84;98011.75;6278965;28;20596;-66
2022/05/06 01:27:22;;;;;;;4.40;3.40;;;;;;;9.37;86.75;98007.66;6279457;28;20211;-66
2022/05/06 01:30:42;;;;;;;3.47;3.17;;;;;;;9.35;86.24;98020.09;6277952;28;20599;-66
2022/05/06 01:33:54;;;;;;;5.57;3.50;;;;;;;9.33;86.78;98022.81;6280167;28;20226;-67
2022/05/06 01:37:01;;;;;;;3.80;3.47;;;;;;;9.33;86.45;98014.91;6278648;28;20222;-66
2022/05/06 01:40:05;;;;;;;4.10;3.23;;;;;;;9.33;86.61;98008.81;6278340;28;20261;-66
2022/05/06 01:43:14;;;;;;;3.13;2.83;;;;;;;9.30;86.47;98009.84;6277485;28;20230;-66
2022/05/06 01:46:20;;;;;;;3.97;3.60;;;;;;;9.26;86.57;98011.03;6251169;28;20324;-66
2022/05/06 01:49:31;;;;;;;6.70;3.50;;;;;;;9.23;87.10;98005.97;6286080;28;20590;-66
2022/05/06 01:52:39;;;;;;;4.33;3.63;;;;;;;9.19;87.08;98004.50;6277895;28;20238;-66
2022/05/06 01:55:41;;;;;;;3.80;3.50;;;;;;;9.19;86.75;98015.88;6278161;28;20231;-67
2022/05/06 01:58:46;;;;;;;4.30;3.20;;;;;;;9.19;86.67;98018.50;6277917;28;20234;-66
2022/05/06 02:01:55;;;;;;;4.30;3.90;;;;;;;9.19;87.31;98015.88;6277422;28;20230;-66
2022/05/06 02:05:17;;;;;;;4.17;3.77;;;;;;;9.16;87.41;98026.63;6276745;28;20309;-67
2022/05/06 02:08:23;;;;;;;4.60;4.20;;;;;;;9.14;86.96;98015.34;6279200;28;20253;-66
2022/05/06 02:11:25;;;;;;;4.77;3.63;;;;;;;9.09;87.79;98009.56;6278464;28;20230;-66
2022/05/06 02:14:28;;;;;;;4.30;3.90;;;;;;;9.03;87.44;98014.41;6277133;28;20898;-66
2022/05/06 02:17:53;;;;;;;3.93;3.50;;;;;;;8.99;87.97;98018.19;6276738;28;20313;-66
2022/05/06 02:21:16;;;;;;;5.70;3.70;;;;;;;8.97;87.72;98009.56;6246661;28;20231;-66
2022/05/06 02:24:20;;;;;;;5.17;3.67;;;;;;;8.95;87.24;98014.09;6279219;28;20598;-66
2022/05/06 02:27:55;;;;;;;4.03;3.63;;;;;;;8.93;87.21;98014.19;6247944;28;20318;-67
2022/05/06 02:34:19;;;;;;;5.13;4.00;;;;;;;8.88;87.65;98009.22;6282886;28;20712;-66
2022/05/06 02:37:35;;;;;;;4.17;3.77;;;;;;;8.85;87.94;98011.25;6276341;28;20230;-66
2022/05/06 02:40:39;;;;;;;4.60;4.20;;;;;;;8.83;87.97;98015.75;6276817;28;20325;-66
2022/05/06 02:43:42;;;;;;;4.37;3.97;;;;;;;8.80;87.93;98008.06;6278185;28;20311;-66
2022/05/06 02:46:46;;;;;;;4.87;4.37;;;;;;;8.77;87.60;98008.31;6276889;28;20247;-66
2022/05/06 02:49:49;;;;;;;5.10;4.70;;;;;;;8.76;88.42;98003.97;6276633;28;20273;-66
2022/05/06 02:52:52;;;;;;;4.67;4.27;;;;;;;8.75;87.98;98011.03;6276318;28;20317;-67
2022/05/06 02:55:56;;;;;;;4.43;4.03;;;;;;;8.74;88.56;98011.97;6276557;28;20233;-66
2022/05/06 02:58:59;;;;;;;4.90;4.50;;;;;;;8.73;88.40;98006.81;6276709;28;20228;-66
2022/05/06 03:02:06;;;;;;;5.67;4.60;;;;;;;8.70;87.78;98009.63;6281161;28;20237;-66
2022/05/06 03:05:09;;;;;;;5.00;4.50;;;;;;;8.68;88.56;98011.56;6282597;28;20629;-66
2022/05/06 03:08:12;;;;;;;6.00;4.00;;;;;;;8.67;88.80;98009.88;6281311;28;20236;-67
2022/05/06 03:11:14;;;;;;;4.43;4.07;;;;;;;8.68;88.85;98008.94;6283648;28;20248;-67
2022/05/06 03:14:23;;;;;;;4.40;4.00;;;;;;;8.68;89.03;98001.03;6282385;28;20644;-67
2022/05/06 03:18:04;;;;;;;6.43;4.80;;;;;;;8.71;88.63;98006.91;6275078;28;20302;-66
2022/05/06 03:21:06;;;;;;;5.70;4.37;;;;;;;8.73;89.16;98007.66;6281359;28;20293;-66
2022/05/06 03:24:08;;;;;;;5.43;4.87;;;;;;;8.74;88.84;98004.06;6282028;28;20302;-66
2022/05/06 03:30:38;;;;;;;4.73;4.30;;;;;;;8.74;89.61;98004.06;6282596;28;20223;-66
2022/05/06 03:34:01;;;;;;;6.47;5.57;;;;;;;8.77;88.98;98011.78;6258046;28;20218;-66
2022/05/06 03:37:08;;;;;;;6.23;4.83;;;;;;;8.81;89.51;98017.66;6281233;28;20231;-66
2022/05/06 03:40:11;;;;;;;6.23;5.63;;;;;;;8.84;89.12;98018.28;6280327;28;20245;-67
2022/05/06 03:43:16;;;;;;;6.00;5.50;;;;;;;8.87;88.87;98015.47;6264865;28;20243;-66
2022/05/06 03:46:18;;;;;;;6.37;5.23;;;;;;;8.91;88.66;98017.88;6282323;28;20757;-67
2022/05/06 03:49:21;;;;;;;7.10;6.20;;;;;;;8.92;88.99;98024.81;6281435;28;20232;-66
2022/05/06 03:52:23;;;;;;;5.33;4.83;;;;;;;8.95;90.08;98027.25;6282868;28;20226;-66
2022/05/06 03:55:26;;;;;;;6.33;5.60;;;;;;;8.98;89.91;98029.69;6280143;28;20272;-66
2022/05/06 03:58:30;;;;;;;6.13;5.53;;;;;;;9.01;89.13;98029.47;6279632;28;20227;-66
2022/05/06 04:01:50;;;;;;;6.30;5.70;;;;;;;9.06;90.03;98032.63;6282734;28;20222;-66
2022/05/06 04:05:00;;;;;;;8.33;5.43;;;;;;;9.08;89.18;98034.22;6279984;28;20740;-66
2022/05/06 04:08:03;;;;;;;5.83;5.20;;;;;;;9.13;90.16;98037.38;6280093;28;20242;-66
2022/05/06 04:11:05;;;;;;;6.07;5.57;;;;;;;9.15;89.64;98035.47;6280317;28;20231;-66
2022/05/06 04:14:09;;;;;;;6.23;5.47;;;;;;;9.22;89.90;98042.00;6280555;28;20279;-67
2022/05/06 04:17:17;;;;;;;7.33;6.43;;;;;;;9.27;90.04;98043.47;6279376;28;20234;-66
2022/05/06 04:23:44;;;;;;;6.20;5.53;;;;;;;9.34;89.77;98057.91;6279540;28;20247;-67
2022/05/06 04:26:49;;;;;;;6.20;5.70;;;;;;;9.38;89.76;98057.59;6279797;28;20839;-66
2022/05/06 04:29:52;;;;;;;11.63;6.17;;;;;;;9.44;89.71;98056.31;6279993;28;20307;-66
2022/05/06 04:32:56;;;;;;;6.30;5.70;;;;;;;9.49;90.58;98059.47;6278988;28;20601;-66
2022/05/06 04:35:59;;;;;;;6.40;5.87;;;;;;;9.54;89.67;98060.84;6279554;28;20230;-67
2022/05/06 04:39:03;;;;;;;5.53;5.10;;;;;;;9.59;90.35;98063.97;6278913;28;20353;-67
2022/05/06 04:42:09;;;;;;;5.83;5.33;;;;;;;9.65;89.64;98059.25;6279191;28;20299;-66
2022/05/06 04:45:13;;;;;;;5.93;5.43;;;;;;;9.70;89.67;98059.75;6279423;28;20760;-67
2022/05/06 04:48:25;;;;;;;6.57;5.87;;;;;;;9.74;90.19;98067.34;6278927;28;20303;-66
2022/05/06 04:51:29;;;;;;;5.73;5.23;;;;;;;9.80;89.44;98073.97;6280799;28;20701;-66
2022/05/06 04:54:31;;;;;;;6.00;5.50;;;;;;;9.86;89.27;98076.19;6262354;28;20363;-66
2022/05/06 04:57:35;;;;;;;6.07;5.47;;;;;;;9.92;89.42;98075.72;6279162;28;20233;-67
2022/05/06 05:00:38;;;;;;;5.83;5.33;;;;;;;9.99;89.40;98071.69;6278770;28;20226;-67
2022/05/06 05:03:40;;;;;;;6.20;5.70;;;;;;;10.06;89.51;98074.75;6278030;28;20231;-66
2022/05/06 05:06:43;;;;;;;6.33;4.80;;;;;;;10.14;89.36;98072.41;6256350;28;20231;-67
2022/05/06 05:09:48;;;;;;;5.47;4.97;;;;;;;10.21;88.78;98071.88;6276528;28;20271;-67
2022/05/06 05:12:54;;;;;;;5.63;5.13;;;;;;;10.27;89.02;98074.09;6277980;28;20219;-66
2022/05/06 05:16:00;;;;;;;5.90;5.40;;;;;;;10.34;89.12;98071.81;6279794;28;20235;-66
2022/05/06 05:19:04;;;;;;;6.47;5.87;;;;;;;10.43;88.75;98068.50;6278464;28;20301;-67
2022/05/06 05:22:08;;;;;;;5.70;5.20;;;;;;;10.50;88.58;98071.53;6277823;28;20600;-68
2022/05/06 05:25:12;;;;;;;6.30;5.70;;;;;;;10.59;88.72;98073.50;6276911;28;20241;-67
2022/05/06 05:28:16;;;;;;;5.87;5.37;;;;;;;10.67;88.22;98071.16;6278273;28;20234;-68
2022/05/06 05:31:18;;;;;;;5.67;5.20;;;;;;;10.73;88.42;98076.81;6277185;28;20239;-68
2022/05/06 05:34:22;;;;;;;5.93;5.40;;;;;;;10.83;88.05;98079.59;6279790;28;20230;-68
2022/05/06 05:37:25;;;;;;;5.20;4.70;;;;;;;10.96;88.17;98083.00;6277552;28;20242;-69
2022/05/06 05:40:31;;;;;;;5.20;4.70;;;;;;;11.09;87.92;98083.75;6279993;28;20232;-68
2022/05/06 05:50:20;;;;;;;5.40;4.90;;;;;;;11.39;87.21;98088.47;6280304;28;20798;-69
2022/05/06 05:53:22;;;;;;;5.23;4.83;;;;;;;11.46;86.58;98096.81;6260656;28;20254;-68
2022/05/06 05:56:25;;;;;;;5.23;4.77;;;;;;;11.55;86.55;98089.97;6277700;28;20232;-68
2022/05/06 05:59:28;;;;;;;4.67;4.27;;;;;;;11.63;86.06;98098.97;6277510;28;20232;-68
2022/05/06 06:02:35;;;;;;;4.80;4.40;;;;;;;11.67;85.88;98092.50;6277823;28;20241;-69
2022/05/06 06:05:37;;;;;;;5.23;4.73;;;;;;;11.80;85.78;98101.16;6277673;28;20236;-69
2022/05/06 06:08:40;;;;;;;6.23;4.60;;;;;;;11.95;85.85;98095.63;6276181;28;20718;-69
2022/05/06 06:11:44;;;;;;;6.17;4.60;;;;;;;12.03;85.24;98102.00;6277216;28;20228;-69
2022/05/06 06:14:48;;;;;;;4.50;4.10;;;;;;;12.10;85.12;98097.06;6260705;28;20244;-69
2022/05/06 06:17:51;;;;;;;4.37;3.97;;;;;;;12.16;84.94;98107.16;6277216;28;20283;-69
2022/05/06 06:20:56;;;;;;;4.87;4.40;;;;;;;12.24;84.57;98099.44;6261180;28;20638;-68
2022/05/06 06:23:58;;;;;;;4.43;4.03;;;;;;;12.27;84.60;98093.91;6276524;28;20236;-68
2022/05/06 06:27:01;;;;;;;5.60;5.10;;;;;;;12.35;83.93;98104.72;6277579;28;20237;-69
2022/05/06 06:30:05;;;;;;;4.63;4.30;;;;;;;12.40;83.79;98107.81;6276018;28;20241;-69
2022/05/06 06:33:08;;;;;;;6.00;4.20;;;;;;;12.36;83.61;98109.06;6253581;28;20233;-68
2022/05/06 06:36:11;;;;;;;4.97;4.47;;;;;;;12.34;83.50;98115.44;6276126;28;20283;-68
2022/05/06 06:39:13;;;;;;;5.30;4.80;;;;;;;12.37;83.60;98116.03;6277828;28;20224;-69
2022/05/06 06:42:20;;;;;;;5.33;4.83;;;;;;;12.43;83.46;98118.16;6276832;28;20240;-69
2022/05/06 06:45:41;;;;;;;4.80;4.40;;;;;;;12.49;83.25;98120.31;6276057;28;20229;-69
2022/05/06 06:49:05;;;;;;;4.87;4.43;;;;;;;12.57;82.97;98122.34;6242132;28;20265;-69
2022/05/06 06:52:28;;;;;;;4.70;4.30;;;;;;;12.68;82.58;98124.09;6266647;28;20741;-69
2022/05/06 06:55:30;;;;;;;5.00;4.00;;;;;;;12.78;82.54;98117.94;6278188;28;20284;-68
2022/05/06 06:58:32;;;;;;;5.50;4.03;;;;;;;12.85;82.52;98116.47;6278774;28;20240;-68
2022/05/06 07:01:49;;;;;;;4.23;3.90;;;;;;;12.96;81.87;98112.09;6278232;28;20582;-68
2022/05/06 07:04:52;;;;;;;4.57;4.17;;;;;;;13.08;81.69;98111.06;6276912;28;20230;-68
2022/05/06 07:11:53;;;;;;;3.80;3.50;;;;;;;13.39;80.92;98106.69;6278171;28;20230;-68
2022/05/06 07:14:56;;;;;;;4.00;3.70;;;;;;;13.56;80.71;98111.44;6278201;28;20230;-68
2022/05/06 07:17:59;;;;;;;3.93;3.63;;;;;;;13.67;80.26;98109.50;6278012;28;20255;-68
2022/05/06 07:21:01;;;;;;;3.90;3.60;;;;;;;13.81;80.41;98110.13;6277973;28;20596;-68
2022/05/06 07:24:03;;;;;;;4.33;3.93;;;;;;;13.91;80.21;98111.03;6277632;28;20214;-68
2022/05/06 07:27:07;;;;;;;3.70;3.40;;;;;;;14.03;80.06;98112.63;6276690;28;20215;-68
2022/05/06 07:30:10;;;;;;;3.50;3.20;;;;;;;14.14;79.95;98119.66;6276375;28;20341;-68
2022/05/06 07:33:12;;;;;;;3.97;3.67;;;;;;;14.22;79.72;98125.13;6276315;28;20708;-68
2022/05/06 07:36:14;;;;;;;3.83;3.53;;;;;;;14.31;79.02;98117.19;6275524;28;20201;-68
2022/05/06 07:39:17;;;;;;;4.53;4.13;;;;;;;14.40;79.64;98119.03;6277873;28;20207;-68
2022/05/06 07:42:19;;;;;;;4.67;4.00;;;;;;;14.54;79.03;98111.69;6277706;28;20222;-68
2022/05/06 07:45:21;;;;;;;4.80;3.80;;;;;;;14.68;78.60;98120.06;6276564;28;20256;-68
2022/05/06 07:48:23;;;;;;;4.70;4.30;;;;;;;14.88;78.22;98109.44;6281044;28;20704;-68
2022/05/06 07:51:38;;;;;;;4.63;4.27;;;;;;;15.06;77.71;98119.28;6281939;28;20305;-68
2022/05/06 07:54:40;;;;;;;4.20;3.90;;;;;;;15.23;77.17;98123.03;6281920;28;20245;-68
2022/05/06 07:57:42;;;;;;;4.67;4.27;;;;;;;15.36;76.50;98125.41;6282017;28;20238;-68
2022/05/06 08:00:45;;;;;;;4.60;4.20;;;;;;;15.44;76.31;98118.38;6280371;28;20230;-68
2022/05/06 08:07:08;;;;;;;8.73;7.90;;;;;;;15.43;72.66;98111.38;6281159;28;20228;-68
2022/05/06 08:10:10;;;;;;;7.23;6.60;;;;;;;15.41;72.27;98113.34;6282176;28;20231;-68
2022/05/06 08:13:12;;;;;;;8.13;5.13;;;;;;;15.56;73.07;98116.44;6280986;28;20226;-68
2022/05/06 08:16:14;;;;;;;9.30;8.40;;;;;;;15.56;71.77;98118.25;6281574;28;20418;-68
2022/05/06 08:19:18;;;;;;;6.50;5.83;;;;;;;15.44;72.61;98113.06;6281304;28;20809;-68
2022/05/06 08:22:25;;;;;;;9.37;7.63;;;;;;;15.36;71.76;98109.44;6283263;28;20810;-68
2022/05/06 08:25:27;;;;;;;7.57;6.77;;;;;;;15.34;71.44;98106.94;6283925;28;20249;-68
2022/05/06 08:28:38;;;;;;;6.60;5.90;;;;;;;15.36;71.66;98122.75;6280827;28;20235;-68
2022/05/06 08:31:41;;;;;;;5.87;5.13;;;;;;;15.37;71.87;98135.06;6281807;28;20315;-68
2022/05/06 08:34:45;;;;;;;4.90;4.50;;;;;;;15.37;72.58;98130.56;6280685;28;20253;-68
2022/05/06 08:37:48;;;;;;;7.30;6.60;;;;;;;15.32;72.14;98129.31;6280582;28;20231;-68
2022/05/06 08:40:50;;;;;;;5.03;4.50;;;;;;;15.32;72.82;98121.34;6282018;28;20226;-68
2022/05/06 08:43:52;;;;;;;5.90;5.30;;;;;;;15.25;73.04;98121.06;6280551;28;20237;-68
2022/05/06 08:53:37;;;;;;;5.73;5.23;;;;;;;15.35;74.12;98145.00;6280720;28;20591;-68
2022/05/06 08:56:39;;;;;;;4.97;4.47;;;;;;;15.41;74.46;98149.75;6280269;28;20234;-68
2022/05/06 08:59:41;;;;;;;5.57;5.07;;;;;;;15.57;74.24;98159.84;6279587;28;20229;-68
2022/05/06 09:02:43;;;;;;;6.57;5.80;;;;;;;15.70;72.49;98153.22;6280087;28;20226;-68
2022/05/06 09:05:49;;;;;;;5.20;4.80;;;;;;;15.92;72.44;98165.34;6280760;28;20222;-69
2022/05/06 09:08:53;;;;;;;9.80;8.80;;;;;;;16.01;69.28;98158.31;6280375;28;20710;-68
2022/05/06 09:18:43;;;;;;;9.77;8.87;;;;;;;16.32;68.24;98164.22;6278378;28;20230;-68
2022/05/06 09:22:05;;;;;;;9.40;8.37;;;;;;;16.48;67.25;98156.41;6279157;28;20233;-68
2022/05/06 09:25:07;;;;;;;8.70;7.83;;;;;;;16.57;66.60;98150.19;6280940;28;20314;-68
2022/05/06 09:28:31;;;;;;;10.37;8.30;;;;;;;16.83;65.35;98145.03;6278177;28;20242;-68
2022/05/06 09:31:32;;;;;;;9.87;8.33;;;;;;;16.88;64.54;98153.41;6280037;28;20701;-68
2022/05/06 09:34:36;;;;;;;8.27;7.57;;;;;;;16.98;63.87;98148.84;6279139;28;20230;-68
2022/05/06 09:37:45;;;;;;;9.03;8.20;;;;;;;17.01;63.54;98151.22;6277929;28;20234;-68
2022/05/06 09:40:48;;;;;;;10.20;9.30;;;;;;;17.01;62.91;98147.69;6279554;28;20234;-69
2022/05/06 09:44:00;;;;;;;12.17;10.50;;;;;;;17.09;63.11;98155.78;6278554;28;20262;-68
2022/05/06 09:47:15;;;;;;;11.90;10.63;;;;;;;17.13;62.49;98152.66;6270024;28;20230;-68
2022/05/06 09:50:50;;;;;;;10.50;9.33;;;;;;;17.18;61.99;98158.38;6278083;28;20774;-69
2022/05/06 09:54:02;;;;;;;12.60;9.53;;;;;;;17.53;61.27;98149.50;6278444;28;20695;-69
2022/05/06 09:57:06;;;;;;;10.50;9.27;;;;;;;17.80;61.29;98151.22;6277292;28;20275;-68
2022/05/06 10:00:08;;;;;;;10.43;9.40;;;;;;;17.99;60.12;98151.00;6276963;28;20211;-68
2022/05/06 10:03:11;;;;;;;10.63;8.73;;;;;;;18.21;60.72;98154.13;6254662;28;20215;-69
2022/05/06 10:06:14;;;;;;;11.00;8.20;;;;;;;18.18;59.33;98149.09;6275746;28;20324;-69
2022/05/06 10:09:21;;;;;;;15.57;9.03;;;;;;;18.46;58.79;98142.56;6276634;28;20641;-69
2022/05/06 10:12:25;;;;;;;10.67;9.60;;;;;;;18.80;58.39;98139.84;6278085;28;20230;-69
2022/05/06 10:15:30;;;;;;;10.93;8.93;;;;;;;19.14;56.41;98137.91;6279032;28;20228;-68
2022/05/06 10:18:37;;;;;;;10.10;7.87;;;;;;;19.31;56.89;98137.91;6277428;28;20642;-68
2022/05/06 10:21:47;;;;;;;8.83;7.93;;;;;;;19.36;55.62;98141.78;6277603;28;20292;-69
2022/05/06 10:24:49;;;;;;;7.30;6.60;;;;;;;19.79;55.25;98139.75;6278557;28;22185;-68
2022/05/06 10:34:57;;;;;;;9.37;8.43;;;;;;;19.76;53.54;98165.06;6276743;28;20234;-68
2022/05/06 10:38:15;;;;;;;8.03;7.20;;;;;;;19.42;54.70;98157.16;6278379;28;20230;-68
2022/05/06 10:41:26;;;;;;;10.77;6.77;;;;;;;19.14;56.23;98159.31;6278306;28;20229;-68
2022/05/06 10:44:35;;;;;;;7.73;7.00;;;;;;;18.77;56.73;98159.72;6278427;28;20223;-68
2022/05/06 10:47:37;;;;;;;8.20;6.83;;;;;;;18.44;57.13;98156.09;6251914;28;20231;-68
2022/05/06 10:50:40;;;;;;;10.00;6.47;;;;;;;18.11;58.81;98145.41;6273302;28;20230;-68
2022/05/06 10:53:42;;;;;;;8.60;6.97;;;;;;;17.98;60.43;98145.81;6278266;28;20368;-68
2022/05/06 10:56:44;;;;;;;6.50;5.80;;;;;;;18.02;61.03;98155.19;6277744;28;20316;-68
2022/05/06 10:59:51;;;;;;;5.03;4.43;;;;;;;18.24;62.18;98159.16;6280527;28;20223;-69
2022/05/06 11:02:55;;;;;;;5.70;5.03;;;;;;;18.47;61.83;98165.59;6278215;28;20356;-68
2022/05/06 11:05:57;;;;;;;5.20;4.57;;;;;;;18.66;62.39;98176.09;6277990;28;20697;-68
2022/05/06 11:08:59;;;;;;;6.80;6.20;;;;;;;18.71;61.88;98172.91;6279454;28;20777;-68
2022/05/06 11:12:02;;;;;;;6.10;5.33;;;;;;;18.68;62.27;98178.56;6277586;28;20631;-68
2022/05/06 11:15:09;;;;;;;5.50;4.70;;;;;;;18.59;63.49;98180.38;6277895;28;20289;-68
2022/05/06 11:18:11;;;;;;;5.00;4.50;;;;;;;18.45;64.80;98175.63;6277852;28;20689;-68
2022/05/06 11:21:20;;;;;;;6.47;4.57;;;;;;;18.13;65.82;98164.78;6278775;28;20589;-68
2022/05/06 11:24:23;;;;;;;4.30;3.90;;;;;;;17.97;66.94;98155.66;6282185;28;20273;-68
2022/05/06 11:27:26;;;;;;;4.80;4.30;;;;;;;17.98;67.03;98161.84;6281948;28;20584;-68
2022/05/06 11:30:30;;;;;;;3.83;3.53;;;;;;;18.00;67.10;98159.84;6282524;28;20242;-68
2022/05/06 11:33:34;;;;;;;4.60;4.20;;;;;;;18.07;67.00;98158.22;6283302;28;20293;-68
2022/05/06 11:36:36;;;;;;;4.67;4.20;;;;;;;18.02;66.62;98160.53;6282720;28;20582;-68
2022/05/06 11:39:38;;;;;;;4.63;4.13;;;;;;;18.03;67.08;98168.41;6282684;28;20241;-68
2022/05/06 11:42:41;;;;;;;4.50;4.07;;;;;;;18.02;67.71;98163.22;6282825;28;20233;-68
2022/05/06 11:49:07;;;;;;;5.20;4.70;;;;;;;17.89;68.21;98168.13;6281328;28;20360;-67
2022/05/06 11:52:10;;;;;;;4.60;4.20;;;;;;;17.86;68.72;98171.13;6282848;28;20311;-68
2022/05/06 11:55:14;;;;;;;4.67;4.27;;;;;;;17.94;68.98;98163.16;6281355;28;20270;-68
2022/05/06 11:58:17;;;;;;;4.90;4.50;;;;;;;18.05;68.13;98171.75;6280616;28;20230;-68
2022/05/06 12:01:30;;;;;;;5.23;3.90;;;;;;;18.24;67.70;98169.84;6281735;28;20304;-68
2022/05/06 12:04:33;;;;;;;5.17;4.77;;;;;;;18.34;67.44;98165.22;6281670;28;20237;-68
2022/05/06 12:07:47;;;;;;;5.43;4.93;;;;;;;18.37;67.37;98171.06;6281901;28;20546;-68
2022/05/06 12:10:57;;;;;;;5.73;5.07;;;;;;;18.23;68.17;98171.69;6279203;28;20234;-70
2022/05/06 12:14:12;;;;;;;5.23;4.80;;;;;;;18.14;68.64;98177.97;6281416;28;20237;-70
2022/05/06 12:17:14;;;;;;;5.33;4.83;;;;;;;18.09;69.26;98182.94;6281382;28;20280;-69
2022/05/06 12:20:37;;;;;;;6.43;5.63;;;;;;;18.12;69.46;98181.81;6281337;28;20234;-70
2022/05/06 12:23:39;;;;;;;6.47;5.00;;;;;;;18.11;69.72;98182.78;6282374;28;20227;-70
2022/05/06 12:26:41;;;;;;;6.63;6.03;;;;;;;18.08;69.75;98192.78;6281399;28;20241;-70
2022/05/06 12:29:46;;;;;;;7.60;6.50;;;;;;;18.01;69.81;98197.09;6280839;28;20234;-70
2022/05/06 12:33:14;;;;;;;7.07;6.37;;;;;;;17.85;69.62;98201.50;6280212;28;20773;-70
2022/05/06 12:36:20;;;;;;;8.67;6.77;;;;;;;17.65;70.44;98212.38;6281476;28;20233;-70
2022/05/06 12:39:23;;;;;;;6.90;6.30;;;;;;;17.44;71.09;98211.81;6279062;28;20301;-71
2022/05/06 12:42:25;;;;;;;6.13;5.33;;;;;;;17.24;71.94;98208.47;6281117;28;20705;-70
2022/05/06 12:45:54;;;;;;;6.47;5.63;;;;;;;17.10;72.58;98202.78;6281656;28;20234;-71
2022/05/06 12:52:19;;;;;;;5.50;5.00;;;;;;;16.98;72.97;98191.50;6280094;28;20284;-70
2022/05/06 12:55:21;;;;;;;5.43;4.93;;;;;;;17.00;72.88;98186.88;6280206;28;20317;-70
2022/05/06 12:58:27;;;;;;;5.20;4.80;;;;;;;17.05;72.91;98181.94;6280676;28;20230;-71
2022/05/06 13:01:30;;;;;;;8.27;7.47;;;;;;;17.00;72.78;98180.69;6279768;28;20273;-69
2022/05/06 13:04:32;;;;;;;8.43;7.63;;;;;;;16.85;73.46;98169.72;6280497;28;20226;-70
2022/05/06 13:07:35;;;;;;;9.90;9.00;;;;;;;16.93;73.41;98172.47;6280459;28;20292;-70
2022/05/06 13:10:37;;;;;;;10.37;7.50;;;;;;;17.24;73.53;98163.09;6280375;28;20222;-70
2022/05/06 13:13:41;;;;;;;10.57;9.60;;;;;;;17.54;72.55;98164.53;6280725;28;20227;-70
2022/05/06 13:16:43;;;;;;;10.93;9.93;;;;;;;17.60;71.70;98160.38;6279561;28;20724;-69
2022/05/06 13:19:46;;;;;;;12.40;11.20;;;;;;;17.66;71.49;98154.47;6280327;28;20367;-69
2022/05/06 13:22:48;;;;;;;11.00;10.00;;;;;;;17.69;71.29;98140.78;6280175;28;21067;-70
2022/05/06 13:25:51;;;;;;;13.67;12.33;;;;;;;17.65;70.08;98137.63;6280144;28;20239;-70
2022/05/06 13:28:54;;;;;;;14.13;12.73;;;;;;;17.48;70.61;98141.09;6279692;28;20585;-69
2022/05/06 13:31:56;;;;;;;15.10;13.70;;;;;;;17.37;69.99;98143.22;6279990;28;20230;-70
2022/05/06 13:34:58;;;;;;;13.10;11.90;;;;;;;17.33;70.32;98135.50;5387974;28;10000856;-69
2022/05/06 13:38:00;;;;;;;13.77;12.57;;;;;;;17.33;70.83;98138.19;6248666;28;20860;-70
2022/05/06 13:41:03;;;;;;;12.33;11.13;;;;;;;17.34;70.68;98137.19;6253594;28;20252;-70
2022/05/06 13:44:07;;;;;;;13.97;12.57;;;;;;;17.47;70.23;98130.63;6252994;28;20234;-70
2022/05/06 13:47:09;;;;;;;12.63;11.43;;;;;;;17.37;70.38;98129.88;6253025;28;20730;-70
2022/05/06 13:50:11;;;;;;;14.13;12.83;;;;;;;17.42;70.24;98135.56;6253890;28;20250;-70
2022/05/06 13:53:13;;;;;;;11.63;10.53;;;;;;;17.36;70.25;98129.03;6253621;28;20235;-70
2022/05/06 13:59:36;;;;;;;13.50;12.23;;;;;;;17.56;69.69;98130.53;6254205;28;20405;-69
2022/05/06 14:02:38;;;;;;;11.57;10.37;;;;;;;17.65;69.77;98126.94;6252837;28;20215;-70
2022/05/06 14:05:47;;;;;;;11.43;10.23;;;;;;;17.84;69.41;98128.56;6253750;28;20698;-70
2022/05/06 14:08:49;;;;;;;13.33;11.63;;;;;;;17.79;68.94;98127.34;6252738;28;20292;-70
2022/05/06 14:11:51;;;;;;;14.63;12.07;;;;;;;17.65;68.97;98126.94;6236019;28;20235;-70
2022/05/06 14:14:53;;;;;;;12.60;11.47;;;;;;;17.46;69.12;98136.94;6253252;28;20233;-71
2022/05/06 14:17:56;;;;;;;13.17;11.87;;;;;;;17.47;69.76;98139.44;6248058;28;20231;-68
2022/05/06 14:20:59;;;;;;;11.07;9.90;;;;;;;17.49;70.27;98134.78;6235413;28;20609;-68
2022/05/06 14:24:01;;;;;;;10.73;9.83;;;;;;;17.54;70.10;98137.84;6252765;28;20238;-68
2022/05/06 14:27:07;;;;;;;8.70;7.90;;;;;;;17.57;70.65;98134.84;6251192;28;20238;-68
2022/05/06 14:30:11;;;;;;;12.00;10.90;;;;;;;17.49;70.25;98134.78;6249760;28;20228;-68
2022/05/06 14:33:16;;;;;;;11.63;10.63;;;;;;;17.45;70.21;98129.94;6253488;28;20247;-69
2022/05/06 14:36:21;;;;;;;8.87;8.07;;;;;;;17.50;70.97;98136.47;6253165;28;20249;-68
2022/05/06 14:39:24;;;;;;;13.00;11.90;;;;;;;17.56;69.90;98133.19;6249876;28;20732;-68
2022/05/06 14:42:29;;;;;;;9.93;9.13;;;;;;;17.54;69.94;98129.84;6251824;28;20230;-68
2022/05/06 14:45:32;;;;;;;12.27;10.80;;;;;;;17.57;69.66;98126.00;6246493;28;20330;-68
2022/05/06 14:48:35;;;;;;;13.90;12.47;;;;;;;17.34;68.94;98123.84;6251711;28;20271;-68
2022/05/06 14:51:38;;;;;;;12.43;11.23;;;;;;;17.27;69.55;98129.94;6233444;28;20230;-68
2022/05/06 14:54:40;;;;;;;9.53;8.53;;;;;;;17.32;70.60;98128.50;6250321;28;20218;-68
2022/05/06 14:57:43;;;;;;;13.20;12.03;;;;;;;17.40;69.81;98130.38;6249003;28;20235;-68
2022/05/06 15:00:45;;;;;;;13.33;10.30;;;;;;;17.42;70.28;98125.72;6256923;28;20726;-68
2022/05/06 15:03:47;;;;;;;9.57;8.57;;;;;;;17.54;70.01;98121.81;6258519;28;20230;-68
2022/05/06 15:06:50;;;;;;;8.93;8.03;;;;;;;17.58;70.23;98117.84;6249565;28;20226;-68
2022/05/06 15:09:52;;;;;;;8.63;7.90;;;;;;;17.69;70.45;98116.78;6233120;28;20453;-67
2022/05/06 15:12:55;;;;;;;8.43;7.70;;;;;;;17.79;69.95;98122.84;6255312;28;20267;-68
2022/05/06 15:15:58;;;;;;;10.43;9.13;;;;;;;17.81;69.68;98120.03;6257570;28;20230;-68
2022/05/06 15:22:21;;;;;;;12.73;11.53;;;;;;;17.77;69.23;98121.34;6256066;28;20239;-68
2022/05/06 15:25:24;;;;;;;10.33;9.37;;;;;;;17.67;69.88;98121.41;6256406;28;20231;-68
2022/05/06 15:28:26;;;;;;;9.43;8.50;;;;;;;17.58;69.95;98119.66;6254391;28;20231;-68
2022/05/06 15:31:29;;;;;;;8.40;7.60;;;;;;;17.59;70.30;98116.84;6257531;28;20322;-68